Terminal Aerodrome Forecast
Issued by NWS Sterling, VA

Current Version | Previous Version | Graphics & Text | Print | Product List | Glossary On
Versions: 1 2 3 4 5 6 7 8 9 10 11 12 13 14 15 16 17 18 19 20 21 22 23 24
397
FTUS41 KLWX 202102 AAA
TAFIAD
TAF AMD
KIAD 202102Z 2021/2124 20008KT P6SM SKC
     FM211100 20008KT P6SM FEW200 FEW250 WS020/22035KT
     FM211300 20008KT P6SM FEW200 FEW250
     FM211700 20012KT P6SM FEW200 SCT250=

USA.gov is the U.S. government's official web portal to all federal, state and local government web resources and services.